createdAt,value
2019-05-22T00:02:29.769Z,19.35
2019-05-22T00:05:24.849Z,23.67
2019-05-22T00:07:55.368Z,25.48
2019-05-22T00:10:28.342Z,24.30
2019-05-22T00:12:59.852Z,28.70
2019-05-22T00:15:30.426Z,30.30
2019-05-22T00:18:02.129Z,29.77
2019-05-22T00:20:32.008Z,32.55
2019-05-22T00:23:07.508Z,29.50
2019-05-22T00:25:38.102Z,31.75
2019-05-22T00:28:09.496Z,32.30
2019-05-22T00:30:42.022Z,30.62
2019-05-22T00:33:11.982Z,32.55
2019-05-22T00:35:42.119Z,29.63
2019-05-22T00:38:11.968Z,33.83
2019-05-22T00:40:44.761Z,32.58
2019-05-22T00:43:17.159Z,30.45
2019-05-22T00:45:49.769Z,32.00
2019-05-22T00:48:22.984Z,31.30
2019-05-22T00:51:22.081Z,32.70
2019-05-22T00:54:09.683Z,36.23
2019-05-22T00:56:54.324Z,32.95
2019-05-22T00:59:26.804Z,33.13
2019-05-22T01:02:01.846Z,34.05
2019-05-22T01:04:38.029Z,34.85
2019-05-22T01:07:17.677Z,33.78
2019-05-22T01:09:49.197Z,32.78
2019-05-22T01:12:27.146Z,32.58
2019-05-22T01:15:00.241Z,32.40
2019-05-22T01:17:34.321Z,26.48
2019-05-22T01:20:05.800Z,33.53
2019-05-22T01:22:36.886Z,30.88
2019-05-22T01:25:07.072Z,32.03
2019-05-22T01:27:38.935Z,32.03
2019-05-22T01:30:11.989Z,33.75
2019-05-22T01:32:45.524Z,31.90
2019-05-22T01:35:16.083Z,32.73
2019-05-22T01:37:45.516Z,31.60
2019-05-22T01:40:26.318Z,32.40
2019-05-22T01:42:58.898Z,33.63
2019-05-22T01:45:29.601Z,32.03
2019-05-22T01:48:06.663Z,32.03
2019-05-22T01:50:51.066Z,30.15
2019-05-22T01:53:23.953Z,30.72
2019-05-22T01:55:59.330Z,32.38
2019-05-22T01:58:31.631Z,33.75
2019-05-22T02:01:03.137Z,32.40
2019-05-22T02:03:34.387Z,29.40
2019-05-22T02:06:07.226Z,31.55
2019-05-22T02:08:41.593Z,30.20
2019-05-22T02:11:14.141Z,28.50
2019-05-22T02:13:48.785Z,26.30
2019-05-22T02:16:18.770Z,27.58
2019-05-22T02:18:50.982Z,28.07
2019-05-22T02:21:21.770Z,29.65
2019-05-22T02:23:52.722Z,29.63
2019-05-22T02:26:23.474Z,30.40
2019-05-22T02:28:54.803Z,30.52
2019-05-22T02:31:28.733Z,31.45
2019-05-22T02:34:08.103Z,33.23
2019-05-22T02:36:41.279Z,31.75
2019-05-22T02:39:21.499Z,33.30
2019-05-22T02:41:56.715Z,32.05
2019-05-22T02:44:27.035Z,29.90
2019-05-22T02:47:16.560Z,30.48
2019-05-22T02:49:32.202Z,34.40
2019-05-22T02:52:03.727Z,33.10
2019-05-22T02:54:34.362Z,34.05
2019-05-22T02:57:05.073Z,32.30
2019-05-22T02:59:34.498Z,32.28
2019-05-22T03:02:04.685Z,35.03
2019-05-22T03:05:00.949Z,32.55
2019-05-22T03:07:31.550Z,33.18
2019-05-22T03:10:02.527Z,33.63
2019-05-22T03:12:35.054Z,32.20
2019-05-22T03:15:07.760Z,35.52
2019-05-22T03:17:38.854Z,33.15
2019-05-22T03:20:13.115Z,30.02
2019-05-22T03:22:52.247Z,29.72
2019-05-22T03:25:23.439Z,28.83
2019-05-22T03:27:54.705Z,25.65
2019-05-22T03:30:27.708Z,24.45
2019-05-22T03:32:59.182Z,22.20
2019-05-22T03:35:30.382Z,21.45
2019-05-22T03:38:01.377Z,20.27
2019-05-22T03:40:31.983Z,18.30
2019-05-22T03:43:05.177Z,17.00
2019-05-22T03:45:36.221Z,14.43
2019-05-22T03:48:07.257Z,14.65
2019-05-22T03:50:37.507Z,13.75
2019-05-22T03:53:18.115Z,12.55
2019-05-22T03:55:48.917Z,14.20
2019-05-22T03:58:18.794Z,16.12
2019-05-22T04:00:50.579Z,16.30
2019-05-22T04:03:21.051Z,16.42
2019-05-22T04:05:52.592Z,17.57
2019-05-22T04:08:26.281Z,15.20
2019-05-22T04:11:05.207Z,15.63
2019-05-22T04:13:36.120Z,12.18
2019-05-22T04:16:07.936Z,11.08
2019-05-22T04:18:39.289Z,9.80
2019-05-22T04:21:08.794Z,9.03
2019-05-22T04:23:38.939Z,7.90
2019-05-22T04:26:11.964Z,9.03
2019-05-22T04:28:49.171Z,10.58
2019-05-22T04:31:19.216Z,11.75
2019-05-22T04:33:49.977Z,13.90
2019-05-22T04:36:20.028Z,11.22
2019-05-22T04:38:49.954Z,13.20
2019-05-22T04:41:19.690Z,11.78
2019-05-22T04:43:49.802Z,11.43
2019-05-22T04:46:20.122Z,11.70
2019-05-22T04:48:50.067Z,11.50
2019-05-22T04:51:31.549Z,12.35
2019-05-22T04:54:01.573Z,13.68
2019-05-22T04:56:31.817Z,18.42
2019-05-22T04:59:02.071Z,20.10
2019-05-22T05:01:32.416Z,21.95
2019-05-22T05:04:03.034Z,22.07
2019-05-22T05:06:35.663Z,23.55
2019-05-22T05:09:09.265Z,22.55
2019-05-22T05:11:39.299Z,19.55
2019-05-22T05:14:09.133Z,17.42
2019-05-22T05:16:38.869Z,15.70
2019-05-22T05:19:08.982Z,16.30
2019-05-22T05:21:39.595Z,15.20
2019-05-22T05:24:09.671Z,16.20
2019-05-22T05:26:40.405Z,15.40
2019-05-22T05:29:32.383Z,15.40
2019-05-22T05:32:03.621Z,14.45
2019-05-22T05:34:54.671Z,13.68
2019-05-22T05:37:25.249Z,13.98
2019-05-22T05:40:45.336Z,13.58
2019-05-22T05:43:19.115Z,14.53
2019-05-22T05:45:50.305Z,13.78
2019-05-22T05:48:24.179Z,13.58
2019-05-22T05:51:29.059Z,13.22
2019-05-22T05:54:06.351Z,13.68
2019-05-22T05:56:37.460Z,12.88
2019-05-22T05:59:08.407Z,12.68
2019-05-22T06:01:41.683Z,12.63
2019-05-22T06:04:11.864Z,10.90
2019-05-22T06:07:22.744Z,11.33
2019-05-22T06:10:34.462Z,9.78
2019-05-22T06:13:05.441Z,9.25
2019-05-22T06:15:47.185Z,9.65
2019-05-22T06:18:32.752Z,8.80
2019-05-22T06:21:04.161Z,10.08
2019-05-22T06:24:22.176Z,9.70
2019-05-22T06:27:23.190Z,10.03
2019-05-22T06:30:01.612Z,8.50
2019-05-22T06:33:08.534Z,9.40
2019-05-22T06:35:38.674Z,7.45
2019-05-22T06:38:35.483Z,9.03
2019-05-22T06:41:06.853Z,9.18
2019-05-22T06:44:23.351Z,8.63
2019-05-22T06:46:53.438Z,9.65
2019-05-22T06:49:49.169Z,9.40
2019-05-22T06:52:19.537Z,8.85
2019-05-22T06:54:49.504Z,8.48
2019-05-22T06:57:23.068Z,9.38
2019-05-22T07:00:11.496Z,10.72
2019-05-22T07:02:24.819Z,9.08
2019-05-22T07:04:54.960Z,9.48
2019-05-22T07:07:26.624Z,9.10
2019-05-22T07:09:56.848Z,11.22
2019-05-22T07:12:26.989Z,11.40
2019-05-22T07:15:23.169Z,10.35
2019-05-22T07:17:56.960Z,9.75
2019-05-22T07:20:28.551Z,9.58
2019-05-22T07:22:59.013Z,10.30
2019-05-22T07:25:29.199Z,9.85
2019-05-22T07:28:00.323Z,10.38
2019-05-22T07:30:29.731Z,10.28
2019-05-22T07:32:59.399Z,9.20
2019-05-22T07:35:45.597Z,10.30
2019-05-22T07:38:00.089Z,10.58
2019-05-22T07:40:30.134Z,14.05
2019-05-22T07:42:59.562Z,12.90
2019-05-22T07:45:30.601Z,15.40
2019-05-22T07:48:00.959Z,11.25
2019-05-22T07:50:32.859Z,14.10
2019-05-22T07:53:02.748Z,10.35
2019-05-22T07:55:33.942Z,16.90
2019-05-22T07:58:09.892Z,10.30
2019-05-22T08:00:50.214Z,17.35
2019-05-22T08:03:21.527Z,13.03
2019-05-22T08:05:54.892Z,14.33
2019-05-22T08:08:26.550Z,14.40
2019-05-22T08:10:57.973Z,16.57
2019-05-22T08:13:29.295Z,21.12
2019-05-22T08:15:58.929Z,17.12
2019-05-22T08:18:32.534Z,20.88
2019-05-22T08:21:01.953Z,14.35
2019-05-22T08:23:31.576Z,14.78
2019-05-22T08:26:01.326Z,19.45
2019-05-22T08:28:33.155Z,19.90
2019-05-22T08:31:04.289Z,17.65
2019-05-22T08:33:35.246Z,16.80
2019-05-22T08:36:05.214Z,15.45
2019-05-22T08:38:35.873Z,17.75
2019-05-22T08:41:09.858Z,17.55
2019-05-22T08:44:11.325Z,15.65
2019-05-22T08:46:12.928Z,15.58
2019-05-22T08:48:47.798Z,14.83
2019-05-22T08:51:16.211Z,16.70
2019-05-22T08:53:48.130Z,14.90
2019-05-22T08:56:18.351Z,13.78
2019-05-22T08:58:48.664Z,15.18
2019-05-22T09:01:18.224Z,15.78
2019-05-22T09:03:47.952Z,16.75
2019-05-22T09:06:17.365Z,12.73
2019-05-22T09:08:47.106Z,11.70
2019-05-22T09:11:16.827Z,13.22
2019-05-22T09:13:46.246Z,14.10
2019-05-22T09:16:16.591Z,12.47
2019-05-22T09:18:46.214Z,12.13
2019-05-22T09:21:16.605Z,14.75
2019-05-22T09:23:46.758Z,13.28
2019-05-22T09:26:17.346Z,15.10
2019-05-22T09:28:47.150Z,14.45
2019-05-22T09:31:17.965Z,13.60
2019-05-22T09:33:48.130Z,13.08
2019-05-22T09:36:17.667Z,13.43
2019-05-22T09:38:47.123Z,11.50
2019-05-22T09:41:17.154Z,12.45
2019-05-22T09:43:46.882Z,12.73
2019-05-22T09:46:16.599Z,12.58
2019-05-22T09:48:46.439Z,12.65
2019-05-22T09:51:15.923Z,12.25
2019-05-22T09:53:45.421Z,11.88
2019-05-22T09:56:14.958Z,14.53
2019-05-22T09:58:44.563Z,12.90
2019-05-22T10:01:14.312Z,12.63
2019-05-22T10:03:43.970Z,11.80
2019-05-22T10:06:13.815Z,11.18
2019-05-22T10:08:43.592Z,10.40
2019-05-22T10:11:13.032Z,10.60
2019-05-22T10:13:42.554Z,10.30
2019-05-22T10:16:12.177Z,9.73
2019-05-22T10:18:41.605Z,9.80
2019-05-22T10:21:11.223Z,10.43
2019-05-22T10:23:40.957Z,9.90
2019-05-22T10:26:11.059Z,9.75
2019-05-22T10:28:41.105Z,10.20
2019-05-22T10:31:11.946Z,10.20
2019-05-22T10:33:41.810Z,6.95
2019-05-22T10:36:11.803Z,6.20
2019-05-22T10:38:41.270Z,6.90
2019-05-22T10:41:10.726Z,7.15
2019-05-22T10:43:40.530Z,7.70
2019-05-22T10:46:10.422Z,7.03
2019-05-22T10:48:40.679Z,7.40
2019-05-22T10:51:10.466Z,8.30
2019-05-22T10:53:40.319Z,7.35
2019-05-22T10:56:10.041Z,7.45
2019-05-22T10:58:39.962Z,6.92
2019-05-22T11:01:10.381Z,7.60
2019-05-22T11:03:39.939Z,8.00
2019-05-22T11:06:09.419Z,8.43
2019-05-22T11:08:39.595Z,8.80
2019-05-22T11:11:10.276Z,8.73
2019-05-22T11:14:01.665Z,9.45
2019-05-22T11:16:31.142Z,11.43
2019-05-22T11:19:02.574Z,10.82
2019-05-22T11:21:32.885Z,11.97
2019-05-22T11:24:02.375Z,11.83
2019-05-22T11:26:32.312Z,13.40
2019-05-22T11:29:02.078Z,11.68
2019-05-22T11:31:31.607Z,14.60
2019-05-22T11:34:01.044Z,13.75
2019-05-22T11:36:31.230Z,13.58
2019-05-22T11:39:00.705Z,11.80
2019-05-22T11:41:30.488Z,11.38
2019-05-22T11:44:00.189Z,11.05
2019-05-22T11:46:30.772Z,12.75
2019-05-22T11:49:01.747Z,11.50
2019-05-22T11:51:31.237Z,12.25
2019-05-22T11:54:09.304Z,11.95
2019-05-22T11:56:31.773Z,11.93
2019-05-22T11:59:01.362Z,13.55
2019-05-22T12:01:30.859Z,12.45
2019-05-22T12:04:01.237Z,10.60
2019-05-22T12:06:31.779Z,11.90
2019-05-22T12:09:01.782Z,12.15
2019-05-22T12:11:31.311Z,9.85
2019-05-22T12:14:01.379Z,10.43
2019-05-22T12:16:31.157Z,12.15
2019-05-22T12:19:00.967Z,9.90
2019-05-22T12:21:30.510Z,9.60
2019-05-22T12:24:00.298Z,9.73
2019-05-22T12:26:30.134Z,9.30
2019-05-22T12:28:59.826Z,10.70
2019-05-22T12:31:29.802Z,9.83
2019-05-22T12:33:59.321Z,11.05
2019-05-22T12:36:29.146Z,9.95
2019-05-22T12:38:59.649Z,9.60
2019-05-22T12:41:30.145Z,9.98
2019-05-22T12:43:59.904Z,10.32
2019-05-22T12:46:31.158Z,11.53
2019-05-22T12:49:00.924Z,11.50
2019-05-22T12:51:32.938Z,11.35
2019-05-22T12:54:03.037Z,13.10
2019-05-22T12:56:32.885Z,12.30
2019-05-22T12:59:04.350Z,12.82
2019-05-22T13:01:34.748Z,13.22
2019-05-22T13:04:05.918Z,13.90
2019-05-22T13:06:35.985Z,13.35
2019-05-22T13:09:11.493Z,13.40
2019-05-22T13:11:41.986Z,12.68
2019-05-22T13:14:12.129Z,13.38
2019-05-22T13:16:47.939Z,13.58
2019-05-22T13:19:14.615Z,13.18
2019-05-22T13:21:46.302Z,14.30
2019-05-22T13:24:18.853Z,12.75
2019-05-22T13:26:49.994Z,13.03
2019-05-22T13:29:19.946Z,12.33
2019-05-22T13:31:51.347Z,14.20
2019-05-22T13:34:23.474Z,13.90
2019-05-22T13:36:56.711Z,13.68
2019-05-22T13:39:26.255Z,12.90
2019-05-22T13:41:56.144Z,14.10
2019-05-22T13:44:26.030Z,13.15
2019-05-22T13:46:56.221Z,11.50
2019-05-22T13:49:26.607Z,11.93
2019-05-22T13:51:56.447Z,10.43
2019-05-22T13:54:26.498Z,10.30
2019-05-22T13:56:57.822Z,10.68
2019-05-22T13:59:27.963Z,9.50
2019-05-22T14:01:57.903Z,10.18
2019-05-22T14:04:28.629Z,9.50
2019-05-22T14:07:00.873Z,8.63
2019-05-22T14:09:30.580Z,9.05
2019-05-22T14:12:00.510Z,7.72
2019-05-22T14:14:31.158Z,7.87
2019-05-22T14:17:01.484Z,8.60
2019-05-22T14:19:31.557Z,9.58
2019-05-22T14:22:01.007Z,8.55
2019-05-22T14:24:31.416Z,8.45
2019-05-22T14:27:01.267Z,8.25
2019-05-22T14:29:30.708Z,8.50
2019-05-22T14:32:00.249Z,9.00
2019-05-22T14:34:29.897Z,8.00
2019-05-22T14:37:00.464Z,8.90
2019-05-22T14:39:31.059Z,7.70
2019-05-22T14:42:01.495Z,8.55
2019-05-22T14:44:33.840Z,7.75
2019-05-22T14:47:13.197Z,8.43
2019-05-22T14:49:36.707Z,8.40
2019-05-22T14:52:07.666Z,7.50
2019-05-22T14:54:37.519Z,7.90
2019-05-22T14:57:07.416Z,6.90
2019-05-22T14:59:37.132Z,6.75
2019-05-22T15:02:08.224Z,8.10
2019-05-22T15:04:38.219Z,7.40
2019-05-22T15:07:08.407Z,7.12
2019-05-22T15:09:38.038Z,7.47
2019-05-22T15:12:07.838Z,7.60
2019-05-22T15:14:37.399Z,7.55
2019-05-22T15:17:07.459Z,7.62
2019-05-22T15:19:37.906Z,7.40
2019-05-22T15:22:09.190Z,6.97
2019-05-22T15:24:44.607Z,7.80
2019-05-22T15:27:14.714Z,6.55
2019-05-22T15:29:44.561Z,7.05
2019-05-22T15:32:16.078Z,7.45
2019-05-22T15:34:47.722Z,8.15
2019-05-22T15:37:20.806Z,8.18
2019-05-22T15:39:50.311Z,8.25
2019-05-22T15:42:40.729Z,8.08
2019-05-22T15:45:14.453Z,7.80
2019-05-22T15:47:54.770Z,8.40
2019-05-22T15:50:26.577Z,8.05
2019-05-22T15:53:03.945Z,8.48
2019-05-22T15:55:35.641Z,8.60
2019-05-22T15:58:08.292Z,8.50
2019-05-22T16:00:40.411Z,7.75
2019-05-22T16:03:13.665Z,8.30
2019-05-22T16:05:45.749Z,9.73
2019-05-22T16:08:17.262Z,8.50
2019-05-22T16:10:48.526Z,9.65
2019-05-22T16:13:20.229Z,9.43
2019-05-22T16:15:52.771Z,8.83
2019-05-22T16:18:26.134Z,9.50
2019-05-22T16:20:57.454Z,8.83
2019-05-22T16:23:28.710Z,8.25
2019-05-22T16:25:58.200Z,7.87
2019-05-22T16:28:31.868Z,7.47
2019-05-22T16:31:00.572Z,7.33
2019-05-22T16:33:30.618Z,8.08
2019-05-22T16:36:00.642Z,8.13
2019-05-22T16:38:31.560Z,8.45
2019-05-22T16:41:00.995Z,9.20
2019-05-22T16:43:48.146Z,10.10
2019-05-22T16:46:01.944Z,10.40
2019-05-22T16:48:31.580Z,10.28
2019-05-22T16:51:01.433Z,11.18
2019-05-22T16:53:31.791Z,10.35
2019-05-22T16:56:01.822Z,10.20
2019-05-22T16:58:32.557Z,10.82
2019-05-22T17:01:02.426Z,12.03
2019-05-22T17:03:33.067Z,13.08
2019-05-22T17:06:02.825Z,12.00
2019-05-22T17:08:33.142Z,11.00
2019-05-22T17:11:04.382Z,10.23
2019-05-22T17:13:34.137Z,11.22
2019-05-22T17:16:04.838Z,11.55
2019-05-22T17:18:46.987Z,13.68
2019-05-22T17:21:06.553Z,12.65
2019-05-22T17:23:36.050Z,14.93
2019-05-22T17:26:05.838Z,14.00
2019-05-22T17:28:35.820Z,15.78
2019-05-22T17:31:06.503Z,16.32
2019-05-22T17:33:36.900Z,14.53
2019-05-22T17:36:07.077Z,14.30
2019-05-22T17:38:36.826Z,14.70
2019-05-22T17:41:09.243Z,13.88
2019-05-22T17:43:41.607Z,11.85
2019-05-22T17:46:12.175Z,11.85
2019-05-22T17:48:42.981Z,11.50
2019-05-22T17:51:20.839Z,10.88
2019-05-22T17:53:50.482Z,10.88
2019-05-22T17:56:20.330Z,10.88
2019-05-22T17:58:50.138Z,11.22
2019-05-22T18:01:21.124Z,10.60
2019-05-22T18:03:51.433Z,10.75
2019-05-22T18:06:21.467Z,10.53
2019-05-22T18:08:51.057Z,9.23
2019-05-22T18:11:20.576Z,9.38
2019-05-22T18:14:08.435Z,8.90
2019-05-22T18:16:38.109Z,9.05
2019-05-22T18:19:08.721Z,9.83
2019-05-22T18:21:38.526Z,9.75
2019-05-22T18:24:17.768Z,10.13
2019-05-22T18:26:48.209Z,9.85
2019-05-22T18:29:19.874Z,10.53
2019-05-22T18:32:00.562Z,11.43
2019-05-22T18:34:30.789Z,13.48
2019-05-22T18:37:05.976Z,12.33
2019-05-22T18:40:01.758Z,13.35
2019-05-22T18:42:40.567Z,13.65
2019-05-22T18:45:28.223Z,13.13
2019-05-22T18:48:02.875Z,13.75
2019-05-22T18:50:38.580Z,14.03
2019-05-22T18:53:41.683Z,15.32
2019-05-22T18:56:16.091Z,15.60
2019-05-22T18:58:53.145Z,16.07
2019-05-22T19:01:31.260Z,15.90
2019-05-22T19:04:15.121Z,15.78
2019-05-22T19:06:56.037Z,16.12
2019-05-22T19:09:31.424Z,14.93
2019-05-22T19:12:07.691Z,16.70
2019-05-22T19:14:46.639Z,14.13
2019-05-22T19:17:28.318Z,15.03
2019-05-22T19:20:29.561Z,14.70
2019-05-22T19:23:01.980Z,14.25
2019-05-22T19:25:35.243Z,14.78
2019-05-22T19:28:11.497Z,14.60
2019-05-22T19:30:48.264Z,15.03
2019-05-22T19:33:30.668Z,12.95
2019-05-22T19:36:02.732Z,15.72
2019-05-22T19:38:38.126Z,12.93
2019-05-22T19:41:13.493Z,12.55
2019-05-22T19:43:58.792Z,11.57
2019-05-22T19:46:35.423Z,11.60
2019-05-22T19:49:08.246Z,11.12
2019-05-22T19:51:42.888Z,11.15
2019-05-22T19:54:18.800Z,10.10
2019-05-22T19:56:49.269Z,11.22
2019-05-22T19:59:18.926Z,9.90
2019-05-22T20:01:48.667Z,9.93
2019-05-22T20:04:18.753Z,10.40
2019-05-22T20:06:49.123Z,10.35
2019-05-22T20:09:19.518Z,10.08
2019-05-22T20:11:52.627Z,9.08
2019-05-22T20:14:22.994Z,9.85
2019-05-22T20:16:53.727Z,9.75
2019-05-22T20:19:23.249Z,9.28
2019-05-22T20:21:53.160Z,10.43
2019-05-22T20:24:22.850Z,12.13
2019-05-22T20:26:52.458Z,11.80
2019-05-22T20:29:22.069Z,12.00
2019-05-22T20:31:51.607Z,12.10
2019-05-22T20:34:21.420Z,11.60
2019-05-22T20:36:51.284Z,10.98
2019-05-22T20:39:20.713Z,12.28
2019-05-22T20:41:50.240Z,10.80
2019-05-22T20:44:20.341Z,11.05
2019-05-22T20:46:51.062Z,10.55
2019-05-22T20:49:21.374Z,9.78
2019-05-22T20:51:51.233Z,8.33
2019-05-22T20:54:20.717Z,8.50
2019-05-22T20:56:53.118Z,10.80
2019-05-22T20:59:24.351Z,9.78
2019-05-22T21:01:54.085Z,10.08
2019-05-22T21:04:25.116Z,10.98
2019-05-22T21:07:00.306Z,11.28
2019-05-22T21:09:29.907Z,10.95
2019-05-22T21:12:00.845Z,12.90
2019-05-22T21:14:30.348Z,11.75
2019-05-22T21:17:01.050Z,12.82
2019-05-22T21:19:31.609Z,12.98
2019-05-22T21:22:03.999Z,13.60
2019-05-22T21:24:36.229Z,12.95
2019-05-22T21:27:07.410Z,14.18
2019-05-22T21:29:37.035Z,13.53
2019-05-22T21:32:08.379Z,16.02
2019-05-22T21:34:39.259Z,15.03
2019-05-22T21:37:10.041Z,16.62
2019-05-22T21:39:40.254Z,14.75
2019-05-22T21:42:10.350Z,16.23
2019-05-22T21:44:39.993Z,15.32
2019-05-22T21:47:10.541Z,16.32
2019-05-22T21:49:40.121Z,15.13
2019-05-22T21:52:10.132Z,15.20
2019-05-22T21:54:39.983Z,13.78
2019-05-22T21:57:10.517Z,15.10
2019-05-22T21:59:40.715Z,14.93
2019-05-22T22:02:18.832Z,14.55
2019-05-22T22:04:48.705Z,15.13
2019-05-22T22:07:19.132Z,14.28
2019-05-22T22:09:49.605Z,13.35
2019-05-22T22:12:23.916Z,13.50
2019-05-22T22:14:53.462Z,13.78
2019-05-22T22:17:24.526Z,15.08
2019-05-22T22:19:54.639Z,14.63
2019-05-22T22:22:28.248Z,13.30
2019-05-22T22:24:58.986Z,12.85
2019-05-22T22:27:28.829Z,12.40
2019-05-22T22:29:58.257Z,13.00
2019-05-22T22:32:29.659Z,14.15
2019-05-22T22:34:59.116Z,12.37
2019-05-22T22:37:29.058Z,13.65
2019-05-22T22:40:00.164Z,13.75
2019-05-22T22:42:31.499Z,14.90
2019-05-22T22:45:03.718Z,13.58
2019-05-22T22:47:44.798Z,13.58
2019-05-22T22:50:16.630Z,14.43
2019-05-22T22:52:46.948Z,14.93
2019-05-22T22:55:19.145Z,13.58
2019-05-22T22:57:51.120Z,13.08
2019-05-22T23:00:27.211Z,12.88
2019-05-22T23:02:59.249Z,11.38
2019-05-22T23:05:29.858Z,12.68
2019-05-22T23:08:00.965Z,12.23
2019-05-22T23:10:31.411Z,11.25
2019-05-22T23:13:01.428Z,11.65
2019-05-22T23:15:32.075Z,10.50
2019-05-22T23:18:02.462Z,13.00
2019-05-22T23:20:30.287Z,11.65
2019-05-22T23:22:58.072Z,12.55
2019-05-22T23:25:27.873Z,12.65
2019-05-22T23:27:59.221Z,14.33
2019-05-22T23:30:29.039Z,14.65
2019-05-22T23:32:58.470Z,13.80
2019-05-22T23:35:30.328Z,13.00
2019-05-22T23:38:02.245Z,13.40
2019-05-22T23:40:34.314Z,13.83
2019-05-22T23:43:04.845Z,13.95
2019-05-22T23:45:35.635Z,13.98
2019-05-22T23:48:14.407Z,14.13
2019-05-22T23:50:44.697Z,12.43
2019-05-22T23:53:16.203Z,13.20
2019-05-22T23:55:46.745Z,13.53
2019-05-22T23:58:17.759Z,13.53
